CKS122 KPAM-KMLB
Flight info
| Callsign | CKS122 |
|---|---|
| Flight time | 0h 47m |
| Altitude | 31000 |
| Route | TERES HEVVN OMN LAMMA JESUP COZMO BITHO |
| Aircraft | B77L/H-SDE1E2E3FGHIJ2J3J4J5M1RWXY/LB1D1 |
Departure
| Time | 2026-04-22 03:30 |
|---|---|
| Airport | Tyndall Air Force Base (KPAM) |
Arrival
| Time | 2026-04-22 04:18 |
|---|---|
| Airport | Melbourne Orlando International Airport (KMLB) |
| Time | Latitude | Longitude | Altitude | Speed | Heading |
|---|---|---|---|---|---|
| 2026-04-22 03:12 | 30.06946 | -85.58528 | 30 ft | 0 kts | 225° |
| 2026-04-22 03:24 | 30.06955 | -85.58518 | 29 ft | 2 kts | 225° |
| 2026-04-22 03:24 | 30.06964 | -85.58507 | 28 ft | 2 kts | 225° |
| 2026-04-22 03:24 | 30.06973 | -85.58497 | 28 ft | 2 kts | 225° |
| 2026-04-22 03:25 | 30.06983 | -85.58485 | 28 ft | 2 kts | 225° |
| 2026-04-22 03:25 | 30.06994 | -85.58472 | 29 ft | 2 kts | 225° |
| 2026-04-22 03:25 | 30.07007 | -85.58457 | 26 ft | 3 kts | 233° |
| 2026-04-22 03:25 | 30.07017 | -85.58436 | 26 ft | 3 kts | 247° |
| 2026-04-22 03:26 | 30.07023 | -85.58414 | 30 ft | 3 kts | 266° |
| 2026-04-22 03:26 | 30.07022 | -85.58390 | 28 ft | 3 kts | 287° |
| 2026-04-22 03:26 | 30.07017 | -85.58377 | 27 ft | 0 kts | 300° |
| 2026-04-22 03:27 | 30.07053 | -85.58409 | 30 ft | 16 kts | 332° |
| 2026-04-22 03:27 | 30.07158 | -85.58453 | 31 ft | 16 kts | 341° |
| 2026-04-22 03:27 | 30.07260 | -85.58522 | 28 ft | 19 kts | 318° |
| 2026-04-22 03:28 | 30.07359 | -85.58637 | 28 ft | 20 kts | 314° |
| 2026-04-22 03:28 | 30.07458 | -85.58753 | 28 ft | 20 kts | 315° |
| 2026-04-22 03:28 | 30.07558 | -85.58862 | 30 ft | 19 kts | 331° |
| 2026-04-22 03:28 | 30.07639 | -85.58866 | 28 ft | 9 kts | 3° |
| 2026-04-22 03:29 | 30.07697 | -85.58795 | 27 ft | 16 kts | 83° |
| 2026-04-22 03:29 | 30.07667 | -85.58725 | 27 ft | 0 kts | 134° |
| 2026-04-22 03:29 | 30.07663 | -85.58720 | 27 ft | 1 kts | 134° |
| 2026-04-22 03:29 | 30.07564 | -85.58606 | 27 ft | 54 kts | 135° |
| 2026-04-22 03:30 | 30.07121 | -85.58091 | 31 ft | 124 kts | 135° |
| 2026-04-22 03:30 | 30.06366 | -85.57214 | 35 ft | 180 kts | 135° |
| 2026-04-22 03:30 | 30.05431 | -85.56135 | 456 ft | 189 kts | 135° |
| 2026-04-22 03:30 | 30.04497 | -85.55059 | 1106 ft | 190 kts | 134° |
| 2026-04-22 03:31 | 30.03555 | -85.53921 | 1520 ft | 206 kts | 134° |
| 2026-04-22 03:31 | 30.02569 | -85.52599 | 1701 ft | 230 kts | 118° |
| 2026-04-22 03:31 | 30.02204 | -85.50727 | 1964 ft | 248 kts | 92° |
| 2026-04-22 03:31 | 30.02159 | -85.48714 | 2657 ft | 254 kts | 93° |
| 2026-04-22 03:32 | 30.02085 | -85.46668 | 3495 ft | 255 kts | 94° |
| 2026-04-22 03:32 | 30.01993 | -85.44634 | 4378 ft | 254 kts | 94° |
| 2026-04-22 03:32 | 30.01886 | -85.42596 | 5215 ft | 254 kts | 94° |
| 2026-04-22 03:32 | 30.01768 | -85.40552 | 5998 ft | 256 kts | 94° |
| 2026-04-22 03:33 | 30.01639 | -85.38490 | 6773 ft | 258 kts | 94° |
| 2026-04-22 03:33 | 30.01501 | -85.36400 | 7422 ft | 264 kts | 95° |
| 2026-04-22 03:33 | 30.01354 | -85.34252 | 8057 ft | 271 kts | 95° |
| 2026-04-22 03:33 | 30.01201 | -85.32071 | 8699 ft | 276 kts | 95° |
| 2026-04-22 03:34 | 30.01041 | -85.29839 | 9345 ft | 282 kts | 95° |
| 2026-04-22 03:34 | 30.00874 | -85.27561 | 9998 ft | 288 kts | 96° |
| 2026-04-22 03:34 | 30.00703 | -85.25246 | 10434 ft | 301 kts | 96° |
| 2026-04-22 03:34 | 30.00516 | -85.22740 | 10581 ft | 325 kts | 96° |
| 2026-04-22 03:35 | 30.00313 | -85.20051 | 10778 ft | 348 kts | 96° |
| 2026-04-22 03:35 | 30.00096 | -85.17180 | 11037 ft | 368 kts | 96° |
| 2026-04-22 03:35 | 29.99870 | -85.14190 | 11565 ft | 379 kts | 96° |
| 2026-04-22 03:35 | 29.99637 | -85.11125 | 12270 ft | 387 kts | 96° |
| 2026-04-22 03:36 | 29.99401 | -85.08016 | 13119 ft | 391 kts | 96° |
| 2026-04-22 03:36 | 29.99160 | -85.04862 | 13947 ft | 396 kts | 96° |
| 2026-04-22 03:36 | 29.98916 | -85.01681 | 14635 ft | 402 kts | 96° |
| 2026-04-22 03:36 | 29.98666 | -84.98435 | 15310 ft | 409 kts | 96° |
| 2026-04-22 03:37 | 29.98414 | -84.95181 | 15986 ft | 415 kts | 96° |
| 2026-04-22 03:37 | 29.98155 | -84.91842 | 16660 ft | 421 kts | 96° |
| 2026-04-22 03:37 | 29.97892 | -84.88457 | 17339 ft | 427 kts | 95° |
| 2026-04-22 03:37 | 29.97624 | -84.85030 | 17999 ft | 432 kts | 95° |
| 2026-04-22 03:38 | 29.97352 | -84.81554 | 18645 ft | 438 kts | 95° |
| 2026-04-22 03:38 | 29.97076 | -84.78036 | 19219 ft | 443 kts | 95° |
| 2026-04-22 03:38 | 29.96795 | -84.74477 | 19809 ft | 447 kts | 95° |
| 2026-04-22 03:38 | 29.96510 | -84.70885 | 20390 ft | 452 kts | 95° |
| 2026-04-22 03:39 | 29.96222 | -84.67253 | 20947 ft | 457 kts | 95° |
| 2026-04-22 03:39 | 29.95929 | -84.63580 | 21494 ft | 462 kts | 95° |
| 2026-04-22 03:39 | 29.95632 | -84.59865 | 22036 ft | 467 kts | 95° |
| 2026-04-22 03:39 | 29.95330 | -84.56113 | 22562 ft | 472 kts | 95° |
| 2026-04-22 03:40 | 29.95024 | -84.52319 | 23083 ft | 477 kts | 95° |
| 2026-04-22 03:40 | 29.94718 | -84.48525 | 23589 ft | 483 kts | 95° |
| 2026-04-22 03:40 | 29.94403 | -84.44652 | 24052 ft | 487 kts | 95° |
| 2026-04-22 03:40 | 29.94086 | -84.40748 | 24532 ft | 490 kts | 95° |
| 2026-04-22 03:41 | 29.93763 | -84.36827 | 25060 ft | 492 kts | 96° |
| 2026-04-22 03:41 | 29.93281 | -84.32911 | 25561 ft | 495 kts | 101° |
| 2026-04-22 03:41 | 29.92460 | -84.29053 | 26047 ft | 497 kts | 107° |
| 2026-04-22 03:41 | 29.91462 | -84.25234 | 26503 ft | 500 kts | 108° |
| 2026-04-22 03:42 | 29.90436 | -84.21383 | 26959 ft | 503 kts | 108° |
| 2026-04-22 03:42 | 29.89411 | -84.17509 | 27415 ft | 506 kts | 108° |
| 2026-04-22 03:42 | 29.88395 | -84.13613 | 27879 ft | 509 kts | 107° |
| 2026-04-22 03:42 | 29.87384 | -84.09690 | 28315 ft | 512 kts | 107° |
| 2026-04-22 03:43 | 29.86372 | -84.05741 | 28737 ft | 515 kts | 107° |
| 2026-04-22 03:43 | 29.85358 | -84.01777 | 29259 ft | 516 kts | 107° |
| 2026-04-22 03:43 | 29.84346 | -83.97829 | 29930 ft | 513 kts | 107° |
| 2026-04-22 03:43 | 29.83348 | -83.93948 | 30552 ft | 511 kts | 107° |
| 2026-04-22 03:44 | 29.82346 | -83.90032 | 31019 ft | 511 kts | 106° |
| 2026-04-22 03:44 | 29.81510 | -83.86047 | 31302 ft | 514 kts | 103° |
| 2026-04-22 03:44 | 29.80091 | -83.77942 | 31274 ft | 515 kts | 101° |
| 2026-04-22 03:45 | 29.78721 | -83.69873 | 31280 ft | 512 kts | 102° |
| 2026-04-22 03:45 | 29.77320 | -83.61829 | 31283 ft | 512 kts | 102° |
| 2026-04-22 03:46 | 29.75892 | -83.53783 | 31285 ft | 512 kts | 102° |
| 2026-04-22 03:46 | 29.74455 | -83.45750 | 31283 ft | 513 kts | 102° |
| 2026-04-22 03:47 | 29.73023 | -83.37761 | 31294 ft | 513 kts | 102° |
| 2026-04-22 03:47 | 29.71573 | -83.29699 | 31299 ft | 514 kts | 102° |
| 2026-04-22 03:48 | 29.70122 | -83.21652 | 31303 ft | 514 kts | 102° |
| 2026-04-22 03:48 | 29.68664 | -83.13600 | 31306 ft | 514 kts | 102° |
| 2026-04-22 03:49 | 29.67201 | -83.05546 | 31305 ft | 515 kts | 102° |
| 2026-04-22 03:49 | 29.65733 | -82.97495 | 31298 ft | 515 kts | 102° |
| 2026-04-22 03:50 | 29.64258 | -82.89436 | 31305 ft | 515 kts | 102° |
| 2026-04-22 03:50 | 29.62784 | -82.81413 | 31302 ft | 516 kts | 102° |
| 2026-04-22 03:51 | 29.61297 | -82.73345 | 31301 ft | 516 kts | 102° |
| 2026-04-22 03:51 | 29.59803 | -82.65278 | 31296 ft | 515 kts | 103° |
| 2026-04-22 03:52 | 29.58750 | -82.61351 | 31297 ft | 514 kts | 114° |
| 2026-04-22 03:52 | 29.57108 | -82.57711 | 31326 ft | 513 kts | 123° |
| 2026-04-22 03:52 | 29.52656 | -82.51385 | 31329 ft | 508 kts | 137° |
| 2026-04-22 03:53 | 29.47639 | -82.45654 | 31312 ft | 510 kts | 137° |
| 2026-04-22 03:53 | 29.42627 | -82.39878 | 31295 ft | 505 kts | 137° |
| 2026-04-22 03:54 | 29.38562 | -82.35141 | 30923 ft | 493 kts | 137° |
| 2026-04-22 03:54 | 29.36165 | -82.32341 | 30459 ft | 489 kts | 137° |
| 2026-04-22 03:54 | 29.33823 | -82.29607 | 29947 ft | 485 kts | 137° |
| 2026-04-22 03:55 | 29.31472 | -82.26863 | 29442 ft | 480 kts | 137° |
| 2026-04-22 03:55 | 29.29142 | -82.24147 | 28960 ft | 475 kts | 137° |
| 2026-04-22 03:55 | 29.26841 | -82.21467 | 28483 ft | 470 kts | 137° |
| 2026-04-22 03:55 | 29.24557 | -82.18809 | 28013 ft | 465 kts | 137° |
| 2026-04-22 03:56 | 29.22290 | -82.16175 | 27562 ft | 461 kts | 137° |
| 2026-04-22 03:56 | 29.20046 | -82.13568 | 27099 ft | 457 kts | 137° |
| 2026-04-22 03:56 | 29.17822 | -82.10988 | 26653 ft | 453 kts | 137° |
| 2026-04-22 03:56 | 29.15611 | -82.08422 | 26200 ft | 450 kts | 137° |
| 2026-04-22 03:57 | 29.13420 | -82.05883 | 25760 ft | 447 kts | 137° |
| 2026-04-22 03:57 | 29.11267 | -82.03389 | 25323 ft | 444 kts | 137° |
| 2026-04-22 03:57 | 29.09100 | -82.00881 | 24879 ft | 441 kts | 137° |
| 2026-04-22 03:57 | 29.06942 | -81.98384 | 24428 ft | 440 kts | 137° |
| 2026-04-22 03:58 | 29.04799 | -81.95907 | 23982 ft | 438 kts | 137° |
| 2026-04-22 03:58 | 29.02663 | -81.93439 | 23482 ft | 436 kts | 137° |
| 2026-04-22 03:58 | 29.00535 | -81.90981 | 23007 ft | 432 kts | 137° |
| 2026-04-22 03:58 | 28.98426 | -81.88547 | 22566 ft | 429 kts | 137° |
| 2026-04-22 03:59 | 28.96332 | -81.86131 | 22142 ft | 425 kts | 136° |
| 2026-04-22 03:59 | 28.94259 | -81.83742 | 21711 ft | 422 kts | 136° |
| 2026-04-22 03:59 | 28.92231 | -81.81405 | 21276 ft | 418 kts | 136° |
| 2026-04-22 03:59 | 28.90192 | -81.79057 | 20852 ft | 415 kts | 136° |
| 2026-04-22 04:00 | 28.88168 | -81.76729 | 20423 ft | 412 kts | 136° |
| 2026-04-22 04:00 | 28.86160 | -81.74419 | 19999 ft | 408 kts | 136° |
| 2026-04-22 04:00 | 28.84168 | -81.72130 | 19574 ft | 405 kts | 136° |
| 2026-04-22 04:00 | 28.82186 | -81.69853 | 19146 ft | 403 kts | 135° |
| 2026-04-22 04:01 | 28.80219 | -81.67595 | 18728 ft | 400 kts | 135° |
| 2026-04-22 04:01 | 28.78264 | -81.65352 | 18256 ft | 397 kts | 135° |
| 2026-04-22 04:01 | 28.76324 | -81.63128 | 17807 ft | 394 kts | 135° |
| 2026-04-22 04:01 | 28.74392 | -81.60914 | 17178 ft | 395 kts | 135° |
| 2026-04-22 04:02 | 28.72475 | -81.58718 | 16661 ft | 384 kts | 135° |
| 2026-04-22 04:02 | 28.70628 | -81.56602 | 16238 ft | 368 kts | 135° |
| 2026-04-22 04:02 | 28.68860 | -81.54579 | 15836 ft | 353 kts | 135° |
| 2026-04-22 04:02 | 28.67158 | -81.52632 | 15465 ft | 340 kts | 135° |
| 2026-04-22 04:03 | 28.65512 | -81.50750 | 15100 ft | 331 kts | 135° |
| 2026-04-22 04:03 | 28.63891 | -81.48899 | 14748 ft | 332 kts | 135° |
| 2026-04-22 04:03 | 28.62230 | -81.47002 | 14403 ft | 345 kts | 134° |
| 2026-04-22 04:03 | 28.60524 | -81.45055 | 13998 ft | 356 kts | 134° |
| 2026-04-22 04:04 | 28.58772 | -81.43055 | 13568 ft | 357 kts | 134° |
| 2026-04-22 04:04 | 28.57023 | -81.41061 | 13157 ft | 354 kts | 134° |
| 2026-04-22 04:04 | 28.55294 | -81.39090 | 12750 ft | 350 kts | 134° |
| 2026-04-22 04:04 | 28.53584 | -81.37143 | 12358 ft | 346 kts | 134° |
| 2026-04-22 04:05 | 28.51892 | -81.35216 | 11971 ft | 342 kts | 134° |
| 2026-04-22 04:05 | 28.50215 | -81.33306 | 11587 ft | 339 kts | 134° |
| 2026-04-22 04:05 | 28.48559 | -81.31422 | 11208 ft | 336 kts | 134° |
| 2026-04-22 04:05 | 28.46913 | -81.29550 | 10852 ft | 333 kts | 134° |
| 2026-04-22 04:06 | 28.45297 | -81.27714 | 10644 ft | 323 kts | 134° |
| 2026-04-22 04:06 | 28.43729 | -81.25934 | 10495 ft | 313 kts | 134° |
| 2026-04-22 04:06 | 28.42214 | -81.24214 | 10352 ft | 303 kts | 134° |
| 2026-04-22 04:06 | 28.40753 | -81.22556 | 10219 ft | 292 kts | 134° |
| 2026-04-22 04:07 | 28.39361 | -81.20977 | 10098 ft | 281 kts | 134° |
| 2026-04-22 04:07 | 28.38005 | -81.19439 | 9878 ft | 272 kts | 134° |
| 2026-04-22 04:07 | 28.36677 | -81.17932 | 9566 ft | 267 kts | 134° |
| 2026-04-22 04:07 | 28.35370 | -81.16452 | 9275 ft | 265 kts | 133° |
| 2026-04-22 04:08 | 28.34056 | -81.14961 | 8988 ft | 269 kts | 133° |
| 2026-04-22 04:08 | 28.32721 | -81.13448 | 8683 ft | 272 kts | 133° |
| 2026-04-22 04:08 | 28.31380 | -81.11930 | 8356 ft | 271 kts | 133° |
| 2026-04-22 04:08 | 28.30059 | -81.10435 | 8030 ft | 267 kts | 133° |
| 2026-04-22 04:09 | 28.28756 | -81.08961 | 7723 ft | 262 kts | 133° |
| 2026-04-22 04:09 | 28.27471 | -81.07508 | 7411 ft | 258 kts | 132° |
| 2026-04-22 04:09 | 28.26211 | -81.06085 | 7123 ft | 254 kts | 132° |
| 2026-04-22 04:09 | 28.24971 | -81.04683 | 6817 ft | 249 kts | 132° |
| 2026-04-22 04:10 | 28.23743 | -81.03296 | 6538 ft | 251 kts | 132° |
| 2026-04-22 04:10 | 28.22495 | -81.01884 | 6246 ft | 255 kts | 132° |
| 2026-04-22 04:10 | 28.21226 | -81.00450 | 5942 ft | 258 kts | 132° |
| 2026-04-22 04:10 | 28.19957 | -80.99019 | 5638 ft | 255 kts | 131° |
| 2026-04-22 04:11 | 28.18721 | -80.97626 | 5325 ft | 250 kts | 131° |
| 2026-04-22 04:11 | 28.17510 | -80.96261 | 5098 ft | 242 kts | 131° |
| 2026-04-22 04:11 | 28.16325 | -80.94925 | 4767 ft | 237 kts | 131° |
| 2026-04-22 04:11 | 28.15172 | -80.93623 | 4477 ft | 231 kts | 131° |
| 2026-04-22 04:12 | 28.14049 | -80.92358 | 4207 ft | 224 kts | 131° |
| 2026-04-22 04:12 | 28.12969 | -80.91143 | 3960 ft | 213 kts | 131° |
| 2026-04-22 04:12 | 28.11945 | -80.89991 | 3707 ft | 202 kts | 131° |
| 2026-04-22 04:12 | 28.10977 | -80.88904 | 3483 ft | 188 kts | 131° |
| 2026-04-22 04:13 | 28.10100 | -80.87914 | 3399 ft | 175 kts | 127° |
| 2026-04-22 04:13 | 28.09613 | -80.86729 | 3304 ft | 166 kts | 95° |
| 2026-04-22 04:13 | 28.09506 | -80.85381 | 3120 ft | 176 kts | 93° |
| 2026-04-22 04:13 | 28.09423 | -80.84009 | 2911 ft | 173 kts | 92° |
| 2026-04-22 04:14 | 28.09377 | -80.82665 | 2688 ft | 168 kts | 89° |
| 2026-04-22 04:14 | 28.09404 | -80.81354 | 2488 ft | 166 kts | 87° |
| 2026-04-22 04:14 | 28.09455 | -80.80094 | 2272 ft | 152 kts | 86° |
| 2026-04-22 04:14 | 28.09508 | -80.78958 | 2114 ft | 138 kts | 86° |
| 2026-04-22 04:15 | 28.09559 | -80.77895 | 1958 ft | 135 kts | 85° |
| 2026-04-22 04:15 | 28.09610 | -80.76841 | 1788 ft | 134 kts | 86° |
| 2026-04-22 04:15 | 28.09661 | -80.75796 | 1618 ft | 132 kts | 86° |
| 2026-04-22 04:15 | 28.09711 | -80.74750 | 1450 ft | 135 kts | 86° |
| 2026-04-22 04:16 | 28.09764 | -80.73667 | 1290 ft | 139 kts | 86° |
| 2026-04-22 04:16 | 28.09866 | -80.71519 | 944 ft | 135 kts | 86° |
| 2026-04-22 04:16 | 28.09919 | -80.70446 | 806 ft | 137 kts | 87° |
| 2026-04-22 04:17 | 28.09972 | -80.69354 | 654 ft | 141 kts | 86° |
| 2026-04-22 04:17 | 28.10028 | -80.68246 | 439 ft | 139 kts | 86° |
| 2026-04-22 04:17 | 28.10075 | -80.67177 | 271 ft | 138 kts | 88° |
| 2026-04-22 04:17 | 28.10133 | -80.66094 | 81 ft | 137 kts | 88° |
| 2026-04-22 04:18 | 28.10179 | -80.65079 | 43 ft | 112 kts | 87° |
| 2026-04-22 04:18 | 28.10213 | -80.64371 | 38 ft | 68 kts | 87° |
| 2026-04-22 04:18 | 28.10229 | -80.64046 | 37 ft | 16 kts | 86° |
| 2026-04-22 04:18 | 28.10173 | -80.63952 | 36 ft | 16 kts | 156° |
| 2026-04-22 04:19 | 28.10119 | -80.63927 | 37 ft | 4 kts | 156° |
| 2026-04-22 04:19 | 28.10097 | -80.63871 | 37 ft | 10 kts | 89° |
| 2026-04-22 04:19 | 28.10098 | -80.63850 | 38 ft | 0 kts | 88° |
| 2026-04-22 04:20 | 28.10098 | -80.63834 | 38 ft | 10 kts | 88° |
| 2026-04-22 04:20 | 28.10102 | -80.63710 | 39 ft | 17 kts | 88° |
| 2026-04-22 04:20 | 28.10106 | -80.63575 | 36 ft | 17 kts | 88° |
| 2026-04-22 04:21 | 28.10111 | -80.63443 | 34 ft | 17 kts | 88° |
| 2026-04-22 04:21 | 28.10113 | -80.63308 | 36 ft | 17 kts | 94° |
| 2026-04-22 04:21 | 28.10058 | -80.63208 | 34 ft | 11 kts | 131° |
| 2026-04-22 04:21 | 28.10008 | -80.63142 | 34 ft | 12 kts | 121° |
| 2026-04-22 04:22 | 28.09997 | -80.63095 | 34 ft | 0 kts | 103° |
| 2026-04-22 04:22 | 28.09991 | -80.63067 | 34 ft | 14 kts | 102° |
| 2026-04-22 04:22 | 28.09972 | -80.62944 | 35 ft | 12 kts | 89° |
| 2026-04-22 04:22 | 28.09939 | -80.62869 | 36 ft | 12 kts | 159° |
| 2026-04-22 04:23 | 28.09861 | -80.62836 | 36 ft | 12 kts | 159° |
| 2026-04-22 04:23 | 28.09797 | -80.62782 | 36 ft | 12 kts | 108° |
| 2026-04-22 04:23 | 28.09846 | -80.62717 | 36 ft | 12 kts | 21° |
| 2026-04-22 04:23 | 28.09865 | -80.62708 | 36 ft | 0 kts | 22° |